createdAt,value
2018-05-11T00:00:01.967Z,1029.48
2018-05-11T00:01:01.961Z,1029.46
2018-05-11T00:02:01.963Z,1029.44
2018-05-11T00:03:01.959Z,1029.49
2018-05-11T00:04:01.950Z,1029.49
2018-05-11T00:05:01.949Z,1029.49
2018-05-11T00:06:01.940Z,1029.47
2018-05-11T00:07:01.942Z,1029.49
2018-05-11T00:08:01.934Z,1029.48
2018-05-11T00:09:01.936Z,1029.47
2018-05-11T00:10:01.925Z,1029.46
2018-05-11T00:11:01.924Z,1029.45
2018-05-11T00:12:01.914Z,1029.49
2018-05-11T00:13:01.919Z,1029.5
2018-05-11T00:14:01.911Z,1029.52
2018-05-11T00:15:01.906Z,1029.54
2018-05-11T00:16:01.896Z,1029.5
2018-05-11T00:17:01.898Z,1029.53
2018-05-11T00:18:01.888Z,1029.57
2018-05-11T00:19:01.886Z,1029.58
2018-05-11T00:20:01.884Z,1029.57
2018-05-11T00:21:01.881Z,1029.6
2018-05-11T00:22:01.873Z,1029.6
2018-05-11T00:23:01.871Z,1029.63
2018-05-11T00:24:01.862Z,1029.61
2018-05-11T00:25:01.863Z,1029.63
2018-05-11T00:26:01.854Z,1029.63
2018-05-11T00:27:01.855Z,1029.63
2018-05-11T00:28:01.844Z,1029.61
2018-05-11T00:29:01.850Z,1029.59
2018-05-11T00:30:01.837Z,1029.62
2018-05-11T00:31:01.831Z,1029.62
2018-05-11T00:32:01.832Z,1029.62
2018-05-11T00:33:01.829Z,1029.64
2018-05-11T00:34:01.823Z,1029.69
2018-05-11T00:35:01.815Z,1029.67
2018-05-11T00:36:01.811Z,1029.67
2018-05-11T00:37:01.812Z,1029.73
2018-05-11T00:38:01.801Z,1029.72
2018-05-11T00:39:01.803Z,1029.77
2018-05-11T00:40:01.794Z,1029.74
2018-05-11T00:41:01.794Z,1029.79
2018-05-11T00:42:01.784Z,1029.79
2018-05-11T00:43:01.786Z,1029.78
2018-05-11T00:44:01.776Z,1029.87
2018-05-11T00:45:01.777Z,1029.9
2018-05-11T00:46:01.775Z,1029.93
2018-05-11T00:47:01.769Z,1029.96
2018-05-11T00:48:01.760Z,1029.93
2018-05-11T00:49:01.755Z,1029.92
2018-05-11T00:50:01.758Z,1029.99
2018-05-11T00:51:01.777Z,1029.98
2018-05-11T00:52:01.747Z,1030.01
2018-05-11T00:53:01.738Z,1029.97
2018-05-11T00:54:01.743Z,1030
2018-05-11T00:55:01.735Z,1030.07
2018-05-11T00:56:01.724Z,1030.09
2018-05-11T00:57:01.726Z,1030.07
2018-05-11T00:58:01.717Z,1030.09
2018-05-11T00:59:01.716Z,1030.12
2018-05-11T01:00:01.713Z,1030.15
2018-05-11T01:01:01.709Z,1030.18
2018-05-11T01:02:01.704Z,1030.17
2018-05-11T01:03:01.699Z,1030.23
2018-05-11T01:04:01.692Z,1030.27
2018-05-11T01:05:01.685Z,1030.29
2018-05-11T01:06:01.686Z,1030.32
2018-05-11T01:07:01.681Z,1030.32
2018-05-11T01:08:01.677Z,1030.31
2018-05-11T01:09:01.668Z,1030.37
2018-05-11T01:10:01.668Z,1030.4
2018-05-11T01:11:01.659Z,1030.4
2018-05-11T01:12:01.660Z,1030.4
2018-05-11T01:13:01.650Z,1030.46
2018-05-11T01:14:01.666Z,1030.47
2018-05-11T01:15:01.642Z,1030.49
2018-05-11T01:16:01.642Z,1030.47
2018-05-11T01:17:01.739Z,1030.47
2018-05-11T01:18:01.627Z,1030.49
2018-05-11T01:19:01.622Z,1030.43
2018-05-11T01:20:01.624Z,1030.51
2018-05-11T01:21:01.612Z,1030.6
2018-05-11T01:22:01.614Z,1030.63
2018-05-11T01:23:01.610Z,1030.69
2018-05-11T01:24:01.606Z,1030.71
2018-05-11T01:25:01.595Z,1030.74
2018-05-11T01:26:01.597Z,1030.74
2018-05-11T01:27:01.587Z,1030.75
2018-05-11T01:28:01.588Z,1030.78
2018-05-11T01:29:01.577Z,1030.79
2018-05-11T01:30:01.587Z,1030.82
2018-05-11T01:31:01.571Z,1030.83
2018-05-11T01:32:01.576Z,1030.89
2018-05-11T01:33:01.558Z,1030.9
2018-05-11T01:34:01.557Z,1030.88
2018-05-11T01:35:01.550Z,1030.89
2018-05-11T01:36:01.550Z,1030.88
2018-05-11T01:37:01.546Z,1030.94
2018-05-11T01:38:01.536Z,1030.95
2018-05-11T01:39:01.532Z,1030.95
2018-05-11T01:40:01.526Z,1030.95
2018-05-11T01:41:01.528Z,1030.95
2018-05-11T01:42:01.518Z,1030.95
2018-05-11T01:43:01.518Z,1030.95
2018-05-11T01:44:01.512Z,1030.96
2018-05-11T01:45:01.509Z,1031.01
2018-05-11T01:46:01.499Z,1031.02
2018-05-11T01:47:01.495Z,1031.01
2018-05-11T01:48:01.494Z,1031.02
2018-05-11T01:49:01.485Z,1031.04
2018-05-11T01:50:01.481Z,1031.05
2018-05-11T01:51:01.474Z,1031.04
2018-05-11T01:52:01.476Z,1030.99
2018-05-11T01:53:01.485Z,1031.01
2018-05-11T01:54:01.462Z,1031.04
2018-05-11T01:55:01.458Z,1031.03
2018-05-11T01:56:01.453Z,1031.08
2018-05-11T01:57:01.453Z,1031.1
2018-05-11T01:58:01.442Z,1031.08
2018-05-11T01:59:01.437Z,1031.13
2018-05-11T02:00:01.438Z,1031.15
2018-05-11T02:01:01.429Z,1031.15
2018-05-11T02:02:01.428Z,1031.15
2018-05-11T02:03:01.420Z,1031.12
2018-05-11T02:04:01.420Z,1031.16
2018-05-11T02:05:01.413Z,1031.15
2018-05-11T02:06:01.405Z,1031.19
2018-05-11T02:07:01.400Z,1031.18
2018-05-11T02:08:01.400Z,1031.2
2018-05-11T02:09:01.396Z,1031.19
2018-05-11T02:10:01.387Z,1031.16
2018-05-11T02:11:01.384Z,1031.18
2018-05-11T02:12:01.382Z,1031.16
2018-05-11T02:13:01.371Z,1031.13
2018-05-11T02:14:01.370Z,1031.16
2018-05-11T02:15:01.361Z,1031.13
2018-05-11T02:16:01.362Z,1031.13
2018-05-11T02:17:01.351Z,1031.17
2018-05-11T02:18:01.352Z,1031.15
2018-05-11T02:19:01.342Z,1031.21
2018-05-11T02:20:01.342Z,1031.19
2018-05-11T02:21:01.333Z,1031.19
2018-05-11T02:22:01.331Z,1031.2
2018-05-11T02:23:01.323Z,1031.23
2018-05-11T02:24:01.324Z,1031.25
2018-05-11T02:25:01.319Z,1031.25
2018-05-11T02:26:01.403Z,1031.28
2018-05-11T02:27:01.304Z,1031.29
2018-05-11T02:28:01.299Z,1031.26
2018-05-11T02:29:01.300Z,1031.31
2018-05-11T02:30:01.290Z,1031.31
2018-05-11T02:31:01.289Z,1031.35
2018-05-11T02:32:01.279Z,1031.35
2018-05-11T02:33:01.284Z,1031.35
2018-05-11T02:34:01.283Z,1031.41
2018-05-11T02:35:01.275Z,1031.43
2018-05-11T02:36:01.262Z,1031.39
2018-05-11T02:37:01.261Z,1031.44
2018-05-11T02:38:01.256Z,1031.46
2018-05-11T02:39:01.247Z,1031.45
2018-05-11T02:40:01.246Z,1031.45
2018-05-11T02:41:01.242Z,1031.49
2018-05-11T02:42:01.230Z,1031.46
2018-05-11T02:43:01.229Z,1031.51
2018-05-11T02:44:01.222Z,1031.53
2018-05-11T02:45:01.227Z,1031.52
2018-05-11T02:46:01.212Z,1031.52
2018-05-11T02:47:01.214Z,1031.56
2018-05-11T02:48:01.202Z,1031.56
2018-05-11T02:49:01.214Z,1031.55
2018-05-11T02:50:01.192Z,1031.54
2018-05-11T02:51:01.192Z,1031.55
2018-05-11T02:52:01.183Z,1031.53
2018-05-11T02:53:01.182Z,1031.59
2018-05-11T02:54:01.177Z,1031.58
2018-05-11T02:55:01.172Z,1031.62
2018-05-11T02:56:01.162Z,1031.61
2018-05-11T02:57:01.159Z,1031.66
2018-05-11T02:58:01.157Z,1031.65
2018-05-11T02:59:01.154Z,1031.69
2018-05-11T03:00:01.154Z,1031.69
2018-05-11T03:01:01.137Z,1031.69
2018-05-11T03:02:01.162Z,1031.73
2018-05-11T03:03:01.133Z,1031.72
2018-05-11T03:04:01.121Z,1031.73
2018-05-11T03:05:01.136Z,1031.77
2018-05-11T03:06:01.112Z,1031.8
2018-05-11T03:07:01.111Z,1031.79
2018-05-11T03:08:01.114Z,1031.76
2018-05-11T03:09:01.102Z,1031.8
2018-05-11T03:10:01.096Z,1031.79
2018-05-11T03:11:01.091Z,1031.79
2018-05-11T03:12:01.081Z,1031.76
2018-05-11T03:13:01.076Z,1031.78
2018-05-11T03:14:01.077Z,1031.8
2018-05-11T03:15:01.070Z,1031.85
2018-05-11T03:16:01.065Z,1031.84
2018-05-11T03:17:01.055Z,1031.85
2018-05-11T03:18:01.055Z,1031.93
2018-05-11T03:19:01.047Z,1031.94
2018-05-11T03:20:01.045Z,1031.92
2018-05-11T03:21:01.035Z,1031.91
2018-05-11T03:22:01.035Z,1031.95
2018-05-11T03:23:01.024Z,1031.95
2018-05-11T03:24:01.024Z,1031.89
2018-05-11T03:25:01.015Z,1032
2018-05-11T03:26:01.009Z,1032
2018-05-11T03:27:01.003Z,1032.02
2018-05-11T03:28:01.004Z,1032.03
2018-05-11T03:29:00.994Z,1032.06
2018-05-11T03:30:00.992Z,1032.03
2018-05-11T03:31:00.988Z,1032.06
2018-05-11T03:32:00.983Z,1032.08
2018-05-11T03:33:00.972Z,1032.09
2018-05-11T03:34:00.972Z,1032.1
2018-05-11T03:35:00.962Z,1032.16
2018-05-11T03:36:00.962Z,1032.18
2018-05-11T03:37:00.951Z,1032.2
2018-05-11T03:38:00.951Z,1032.23
2018-05-11T03:39:00.942Z,1032.23
2018-05-11T03:40:00.940Z,1032.23
2018-05-11T03:41:00.930Z,1032.25
2018-05-11T03:42:00.930Z,1032.3
2018-05-11T03:43:00.926Z,1032.31
2018-05-11T03:44:00.914Z,1032.37
2018-05-11T03:45:00.909Z,1032.39
2018-05-11T03:46:00.910Z,1032.42
2018-05-11T03:47:00.905Z,1032.45
2018-05-11T03:48:00.900Z,1032.46
2018-05-11T03:49:00.889Z,1032.46
2018-05-11T03:50:00.889Z,1032.44
2018-05-11T03:51:00.892Z,1032.43
2018-05-11T03:52:00.878Z,1032.43
2018-05-11T03:53:01.125Z,1032.42
2018-05-11T03:54:00.868Z,1032.4
2018-05-11T03:55:00.863Z,1032.44
2018-05-11T03:56:00.852Z,1032.43
2018-05-11T03:57:00.853Z,1032.5
2018-05-11T03:58:00.851Z,1032.51
2018-05-11T03:59:00.843Z,1032.52
2018-05-11T04:00:00.848Z,1032.51
2018-05-11T04:01:00.827Z,1032.53
2018-05-11T04:02:00.827Z,1032.57
2018-05-11T04:03:00.822Z,1032.58
2018-05-11T04:04:00.817Z,1032.54
2018-05-11T04:05:00.807Z,1032.64
2018-05-11T04:06:00.806Z,1032.62
2018-05-11T04:07:00.795Z,1032.63
2018-05-11T04:08:00.795Z,1032.67
2018-05-11T04:09:00.784Z,1032.64
2018-05-11T04:10:00.784Z,1032.67
2018-05-11T04:11:00.774Z,1032.64
2018-05-11T04:12:00.775Z,1032.61
2018-05-11T04:13:00.763Z,1032.6
2018-05-11T04:14:00.758Z,1032.64
2018-05-11T04:15:00.753Z,1032.63
2018-05-11T04:16:00.753Z,1032.64
2018-05-11T04:17:00.747Z,1032.59
2018-05-11T04:18:00.737Z,1032.68
2018-05-11T04:19:00.732Z,1032.66
2018-05-11T04:20:00.731Z,1032.64
2018-05-11T04:21:00.724Z,1032.67
2018-05-11T04:22:00.721Z,1032.72
2018-05-11T04:23:00.715Z,1032.64
2018-05-11T04:24:00.710Z,1032.65
2018-05-11T04:25:00.701Z,1032.62
2018-05-11T04:26:00.700Z,1032.6
2018-05-11T04:27:00.689Z,1032.6
2018-05-11T04:28:00.688Z,1032.62
2018-05-11T04:29:00.679Z,1032.56
2018-05-11T04:30:00.673Z,1032.52
2018-05-11T04:31:00.667Z,1032.57
2018-05-11T04:32:00.668Z,1032.56
2018-05-11T04:33:00.662Z,1032.56
2018-05-11T04:34:00.652Z,1032.57
2018-05-11T04:35:00.715Z,1032.6
2018-05-11T04:36:00.641Z,1032.63
2018-05-11T04:37:00.641Z,1032.63
2018-05-11T04:38:00.630Z,1032.65
2018-05-11T04:39:00.630Z,1032.66
2018-05-11T04:40:00.619Z,1032.65
2018-05-11T04:41:00.620Z,1032.62
2018-05-11T04:42:00.611Z,1032.61
2018-05-11T04:43:00.609Z,1032.67
2018-05-11T04:44:00.599Z,1032.66
2018-05-11T04:45:00.604Z,1032.66
2018-05-11T04:46:00.587Z,1032.64
2018-05-11T04:47:00.583Z,1032.63
2018-05-11T04:48:00.583Z,1032.6
2018-05-11T04:49:00.578Z,1032.6
2018-05-11T04:50:00.566Z,1032.65
2018-05-11T04:51:00.564Z,1032.69
2018-05-11T04:52:00.557Z,1032.68
2018-05-11T04:53:00.556Z,1032.71
2018-05-11T04:54:00.545Z,1032.71
2018-05-11T04:55:00.546Z,1032.72
2018-05-11T04:56:00.535Z,1032.76
2018-05-11T04:57:00.535Z,1032.76
2018-05-11T04:58:00.527Z,1032.76
2018-05-11T04:59:00.525Z,1032.79
2018-05-11T05:00:00.514Z,1032.82
2018-05-11T05:01:00.514Z,1032.82
2018-05-11T05:02:00.511Z,1032.88
2018-05-11T05:03:00.506Z,1032.8
2018-05-11T05:04:00.493Z,1032.8
2018-05-11T05:05:00.488Z,1032.85
2018-05-11T05:06:00.488Z,1032.92
2018-05-11T05:07:00.483Z,1032.93
2018-05-11T05:08:00.477Z,1032.94
2018-05-11T05:09:00.467Z,1032.93
2018-05-11T05:10:00.467Z,1032.89
2018-05-11T05:11:00.465Z,1032.93
2018-05-11T05:12:00.451Z,1032.93
2018-05-11T05:13:00.451Z,1032.93
2018-05-11T05:14:00.449Z,1032.88
2018-05-11T05:15:00.440Z,1032.88
2018-05-11T05:16:00.430Z,1032.9
2018-05-11T05:17:00.430Z,1032.89
2018-05-11T05:18:00.425Z,1032.91
2018-05-11T05:19:00.419Z,1032.92
2018-05-11T05:20:00.409Z,1032.91
2018-05-11T05:21:00.404Z,1032.99
2018-05-11T05:22:00.404Z,1032.93
2018-05-11T05:23:00.399Z,1032.95
2018-05-11T05:24:00.393Z,1032.92
2018-05-11T05:25:00.383Z,1032.92
2018-05-11T05:26:00.383Z,1032.95
2018-05-11T05:27:00.373Z,1032.94
2018-05-11T05:28:00.373Z,1032.99
2018-05-11T05:29:00.364Z,1032.97
2018-05-11T05:30:00.363Z,1032.95
2018-05-11T05:31:00.352Z,1032.99
2018-05-11T05:32:00.352Z,1032.99
2018-05-11T05:33:00.350Z,1032.99
2018-05-11T05:34:00.337Z,1033.01
2018-05-11T05:35:00.333Z,1032.97
2018-05-11T05:36:00.334Z,1032.98
2018-05-11T05:37:00.321Z,1032.99
2018-05-11T05:38:00.322Z,1032.94
2018-05-11T05:39:00.317Z,1032.93
2018-05-11T05:40:00.316Z,1032.89
2018-05-11T05:41:00.301Z,1032.93
2018-05-11T05:42:00.312Z,1032.96
2018-05-11T05:43:00.292Z,1032.94
2018-05-11T05:44:00.291Z,1032.96
2018-05-11T05:45:00.282Z,1032.91
2018-05-11T05:46:00.281Z,1032.93
2018-05-11T05:47:00.275Z,1032.85
2018-05-11T05:48:00.270Z,1032.78
2018-05-11T05:49:00.260Z,1032.78
2018-05-11T05:50:00.258Z,1032.8
2018-05-11T05:51:00.251Z,1032.76
2018-05-11T05:52:00.273Z,1032.76
2018-05-11T05:53:00.245Z,1032.79
2018-05-11T05:54:00.317Z,1032.79
2018-05-11T05:55:00.230Z,1032.78
2018-05-11T05:56:00.229Z,1032.79
2018-05-11T05:57:00.225Z,1032.8
2018-05-11T05:58:00.216Z,1032.81
2018-05-11T05:59:00.215Z,1032.72
2018-05-11T06:00:00.372Z,1032.72
2018-05-11T06:01:00.206Z,1032.69
2018-05-11T06:02:00.201Z,1032.7
2018-05-11T06:03:00.191Z,1032.65
2018-05-11T06:04:00.198Z,1032.65
2018-05-11T06:05:00.181Z,1032.64
2018-05-11T06:06:00.177Z,1032.61
2018-05-11T06:07:00.171Z,1032.64
2018-05-11T06:08:00.172Z,1032.62
2018-05-11T06:09:00.169Z,1032.61
2018-05-11T06:10:00.156Z,1032.59
2018-05-11T06:11:00.152Z,1032.61
2018-05-11T06:12:00.148Z,1032.61
2018-05-11T06:13:00.148Z,1032.62
2018-05-11T06:14:00.139Z,1032.64
2018-05-11T06:15:00.139Z,1032.65
2018-05-11T06:16:00.129Z,1032.68
2018-05-11T06:17:00.129Z,1032.73
2018-05-11T06:18:00.119Z,1032.73
2018-05-11T06:19:00.120Z,1032.72
2018-05-11T06:20:00.110Z,1032.79
2018-05-11T06:21:00.114Z,1032.77
2018-05-11T06:22:00.185Z,1032.81
2018-05-11T06:23:00.101Z,1032.77
2018-05-11T06:24:00.092Z,1032.75
2018-05-11T06:25:00.088Z,1032.7
2018-05-11T06:26:00.101Z,1032.75
2018-05-11T06:27:00.083Z,1032.69
2018-05-11T06:28:00.072Z,1032.68
2018-05-11T06:29:00.075Z,1032.67
2018-05-11T06:30:00.064Z,1032.62
2018-05-11T06:31:00.066Z,1032.49
2018-05-11T06:32:00.054Z,1032.46
2018-05-11T06:33:00.058Z,1032.42
2018-05-11T06:34:00.045Z,1032.35
2018-05-11T06:35:00.046Z,1032.32
2018-05-11T06:36:00.037Z,1032.28
2018-05-11T06:37:00.037Z,1032.29
2018-05-11T06:38:00.035Z,1032.32
2018-05-11T06:39:00.027Z,1032.28
2018-05-11T06:40:00.018Z,1032.31
2018-05-11T06:41:00.018Z,1032.36
2018-05-11T06:42:00.015Z,1032.45
2018-05-11T06:43:00.011Z,1032.42
2018-05-11T06:44:00.008Z,1032.47
2018-05-11T06:44:59.998Z,1032.46
2018-05-11T06:46:00.020Z,1032.54
2018-05-11T06:46:59.987Z,1032.51
2018-05-11T06:47:59.988Z,1032.52
2018-05-11T06:48:59.979Z,1032.52
2018-05-11T06:49:59.980Z,1032.52
2018-05-11T06:50:59.975Z,1032.53
2018-05-11T06:51:59.972Z,1032.54
2018-05-11T06:52:59.962Z,1032.54
2018-05-11T06:53:59.962Z,1032.61
2018-05-11T06:54:59.958Z,1032.56
2018-05-11T06:55:59.953Z,1032.6
2018-05-11T06:56:59.946Z,1032.62
2018-05-11T06:57:59.948Z,1032.63
2018-05-11T06:58:59.941Z,1032.63
2018-05-11T06:59:59.938Z,1032.62
2018-05-11T07:00:59.928Z,1032.61
2018-05-11T07:01:59.929Z,1032.62
2018-05-11T07:02:59.919Z,1032.64
2018-05-11T07:03:59.921Z,1032.61
2018-05-11T07:04:59.910Z,1032.6
2018-05-11T07:05:59.914Z,1032.63
2018-05-11T07:06:59.908Z,1032.61
2018-05-11T07:07:59.973Z,1032.61
2018-05-11T07:08:59.900Z,1032.6
2018-05-11T07:09:59.898Z,1032.6
2018-05-11T07:10:59.891Z,1032.6
2018-05-11T07:11:59.886Z,1032.59
2018-05-11T07:12:59.877Z,1032.57
2018-05-11T07:13:59.879Z,1032.56
2018-05-11T07:14:59.875Z,1032.48
2018-05-11T07:15:59.870Z,1032.49
2018-05-11T07:16:59.860Z,1032.42
2018-05-11T07:17:59.862Z,1032.36
2018-05-11T07:18:59.857Z,1032.38
2018-05-11T07:19:59.855Z,1032.35
2018-05-11T07:20:59.850Z,1032.39
2018-05-11T07:21:59.840Z,1032.32
2018-05-11T07:22:59.841Z,1032.32
2018-05-11T07:23:59.834Z,1032.22
2018-05-11T07:24:59.839Z,1032.12
2018-05-11T07:25:59.839Z,1032.07
2018-05-11T07:26:59.825Z,1031.98
2018-05-11T07:27:59.823Z,1031.89
2018-05-11T07:28:59.828Z,1031.81
2018-05-11T07:29:59.824Z,1031.76
2018-05-11T07:30:59.815Z,1031.73
2018-05-11T07:31:59.808Z,1031.76
2018-05-11T07:32:59.798Z,1031.72
2018-05-11T07:33:59.799Z,1031.73
2018-05-11T07:34:59.827Z,1031.82
2018-05-11T07:35:59.794Z,1031.83
2018-05-11T07:36:59.783Z,1031.81
2018-05-11T07:37:59.785Z,1031.79
2018-05-11T07:38:59.779Z,1031.8
2018-05-11T07:39:59.778Z,1031.88
2018-05-11T07:40:59.773Z,1031.87
2018-05-11T07:41:59.766Z,1031.83
2018-05-11T07:42:59.763Z,1031.85
2018-05-11T07:43:59.776Z,1031.8
2018-05-11T07:44:59.758Z,1031.84
2018-05-11T07:45:59.758Z,1031.9
2018-05-11T07:46:59.755Z,1031.92
2018-05-11T07:47:59.761Z,1031.99
2018-05-11T07:48:59.742Z,1031.98
2018-05-11T07:49:59.748Z,1031.94
2018-05-11T07:50:59.736Z,1032
2018-05-11T07:51:59.738Z,1032.05
2018-05-11T07:52:59.730Z,1032.09
2018-05-11T07:53:59.737Z,1032.17
2018-05-11T07:54:59.724Z,1032.21
2018-05-11T07:55:59.725Z,1032.18
2018-05-11T07:56:59.718Z,1032.15
2018-05-11T07:57:59.717Z,1032.11
2018-05-11T07:58:59.711Z,1032.13
2018-05-11T07:59:59.712Z,1032.1
2018-05-11T08:00:59.709Z,1032.13
2018-05-11T08:01:59.702Z,1032.19
2018-05-11T08:02:59.697Z,1032.18
2018-05-11T08:03:59.736Z,1032.18
2018-05-11T08:04:59.696Z,1032.19
2018-05-11T08:05:59.688Z,1032.19
2018-05-11T08:06:59.690Z,1032.25
2018-05-11T08:07:59.681Z,1032.3
2018-05-11T08:08:59.683Z,1032.32
2018-05-11T08:09:59.676Z,1032.32
2018-05-11T08:10:59.671Z,1032.32
2018-05-11T08:11:59.673Z,1032.31
2018-05-11T08:12:59.667Z,1032.31
2018-05-11T08:13:59.661Z,1032.34
2018-05-11T08:14:59.658Z,1032.29
2018-05-11T08:15:59.661Z,1032.27
2018-05-11T08:16:59.657Z,1032.32
2018-05-11T08:17:59.648Z,1032.31
2018-05-11T08:18:59.656Z,1032.29
2018-05-11T08:19:59.642Z,1032.33
2018-05-11T08:20:59.648Z,1032.38
2018-05-11T08:21:59.635Z,1032.39
2018-05-11T08:22:59.644Z,1032.39
2018-05-11T08:23:59.629Z,1032.37
2018-05-11T08:24:59.653Z,1032.39
2018-05-11T08:25:59.622Z,1032.38
2018-05-11T08:26:59.715Z,1032.4
2018-05-11T08:27:59.617Z,1032.35
2018-05-11T08:28:59.617Z,1032.31
2018-05-11T08:29:59.613Z,1032.28
2018-05-11T08:30:59.613Z,1032.28
2018-05-11T08:31:59.603Z,1032.25
2018-05-11T08:32:59.599Z,1032.24
2018-05-11T08:33:59.601Z,1032.18
2018-05-11T08:34:59.611Z,1032.18
2018-05-11T08:35:59.630Z,1032.14
2018-05-11T08:36:59.611Z,1032.18
2018-05-11T08:37:59.587Z,1032.13
2018-05-11T08:38:59.585Z,1032.14
2018-05-11T08:39:59.576Z,1032.14
2018-05-11T08:40:59.584Z,1032.14
2018-05-11T08:41:59.572Z,1032.17
2018-05-11T08:42:59.572Z,1032.18
2018-05-11T08:43:59.565Z,1032.18
2018-05-11T08:44:59.571Z,1032.12
2018-05-11T08:45:59.564Z,1032.17
2018-05-11T08:46:59.561Z,1032.17
2018-05-11T08:47:59.570Z,1032.08
2018-05-11T08:48:59.557Z,1032
2018-05-11T08:49:59.547Z,1031.85
2018-05-11T08:50:59.547Z,1031.74
2018-05-11T08:51:59.711Z,1031.6
2018-05-11T08:52:59.545Z,1031.5
2018-05-11T08:53:59.535Z,1031.48
2018-05-11T08:54:59.536Z,1031.44
2018-05-11T08:55:59.529Z,1031.48
2018-05-11T08:56:59.535Z,1031.46
2018-05-11T08:57:59.523Z,1031.37
2018-05-11T08:58:59.525Z,1031.34
2018-05-11T08:59:59.518Z,1031.26
2018-05-11T09:00:59.524Z,1031.21
2018-05-11T09:01:59.512Z,1031.11
2018-05-11T09:02:59.599Z,1031.1
2018-05-11T09:03:59.513Z,1031.09
2018-05-11T09:04:59.509Z,1031.1
2018-05-11T09:05:59.521Z,1031.13
2018-05-11T09:06:59.500Z,1031.12
2018-05-11T09:07:59.503Z,1031.13
2018-05-11T09:08:59.501Z,1031.14
2018-05-11T09:09:59.495Z,1031.17
2018-05-11T09:10:59.498Z,1031.27
2018-05-11T09:11:59.495Z,1031.34
2018-05-11T09:12:59.493Z,1031.4
2018-05-11T09:13:59.486Z,1031.5
2018-05-11T09:14:59.490Z,1031.52
2018-05-11T09:15:59.481Z,1031.57
2018-05-11T09:16:59.485Z,1031.64
2018-05-11T09:17:59.484Z,1031.68
2018-05-11T09:18:59.482Z,1031.65
2018-05-11T09:19:59.477Z,1031.64
2018-05-11T09:20:59.473Z,1031.72
2018-05-11T09:21:59.492Z,1031.72
2018-05-11T09:22:59.473Z,1031.77
2018-05-11T09:23:59.470Z,1031.82
2018-05-11T09:24:59.462Z,1031.89
2018-05-11T09:25:59.476Z,1031.89
2018-05-11T09:26:59.468Z,1031.89
2018-05-11T09:27:59.462Z,1031.88
2018-05-11T09:28:59.460Z,1031.94
2018-05-11T09:29:59.452Z,1031.95
2018-05-11T09:30:59.458Z,1031.98
2018-05-11T09:31:59.448Z,1031.97
2018-05-11T09:32:59.450Z,1032
2018-05-11T09:33:59.448Z,1032.01
2018-05-11T09:34:59.445Z,1031.94
2018-05-11T09:35:59.440Z,1031.96
2018-05-11T09:36:59.437Z,1031.94
2018-05-11T09:37:59.438Z,1031.94
2018-05-11T09:38:59.436Z,1031.98
2018-05-11T09:39:59.441Z,1032
2018-05-11T09:40:59.426Z,1032.02
2018-05-11T09:41:59.429Z,1031.96
2018-05-11T09:42:59.421Z,1031.92
2018-05-11T09:43:59.424Z,1031.87
2018-05-11T09:44:59.418Z,1031.81
2018-05-11T09:45:59.427Z,1031.71
2018-05-11T09:46:59.412Z,1031.69
2018-05-11T09:47:59.414Z,1031.62
2018-05-11T09:48:59.496Z,1031.6
2018-05-11T09:49:59.407Z,1031.57
2018-05-11T09:50:59.408Z,1031.58
2018-05-11T09:51:59.406Z,1031.54
2018-05-11T09:52:59.399Z,1031.52
2018-05-11T09:53:59.402Z,1031.39
2018-05-11T09:54:59.423Z,1031.3
2018-05-11T09:55:59.398Z,1031.2
2018-05-11T09:56:59.392Z,1031.12
2018-05-11T09:57:59.393Z,1030.94
2018-05-11T09:58:59.386Z,1030.78
2018-05-11T09:59:59.405Z,1030.68
2018-05-11T10:00:59.399Z,1030.58
2018-05-11T10:01:59.386Z,1030.5
2018-05-11T10:02:59.382Z,1030.46
2018-05-11T10:03:59.384Z,1030.48
2018-05-11T10:04:59.377Z,1030.5
2018-05-11T10:05:59.377Z,1030.6
2018-05-11T10:06:59.377Z,1030.71
2018-05-11T10:07:59.379Z,1030.85
2018-05-11T10:08:59.379Z,1030.94
2018-05-11T10:09:59.372Z,1030.95
2018-05-11T10:10:59.372Z,1030.99
2018-05-11T10:11:59.369Z,1031.01
2018-05-11T10:12:59.374Z,1030.99
2018-05-11T10:13:59.382Z,1030.9
2018-05-11T10:14:59.372Z,1030.82
2018-05-11T10:15:59.366Z,1030.73
2018-05-11T10:16:59.572Z,1030.67
2018-05-11T10:17:59.364Z,1030.72
2018-05-11T10:18:59.364Z,1030.73
2018-05-11T10:19:59.369Z,1030.7
2018-05-11T10:20:59.362Z,1030.65
2018-05-11T10:21:59.362Z,1030.65
2018-05-11T10:22:59.361Z,1030.62
2018-05-11T10:23:59.369Z,1030.6
2018-05-11T10:24:59.366Z,1030.62
2018-05-11T10:25:59.360Z,1030.56
2018-05-11T10:26:59.360Z,1030.64
2018-05-11T10:27:59.359Z,1030.71
2018-05-11T10:28:59.459Z,1030.77
2018-05-11T10:29:59.357Z,1030.77
2018-05-11T10:30:59.358Z,1030.75
2018-05-11T10:31:59.366Z,1030.73
2018-05-11T10:32:59.357Z,1030.72
2018-05-11T10:33:59.361Z,1030.75
2018-05-11T10:34:59.359Z,1030.78
2018-05-11T10:35:59.362Z,1030.77
2018-05-11T10:36:59.356Z,1030.82
2018-05-11T10:37:59.357Z,1030.88
2018-05-11T10:38:59.356Z,1030.99
2018-05-11T10:39:59.360Z,1031.06
2018-05-11T10:40:59.373Z,1031.1
2018-05-11T10:41:59.355Z,1031.13
2018-05-11T10:42:59.364Z,1031.14
2018-05-11T10:43:59.359Z,1031.14
2018-05-11T10:44:59.356Z,1031.15
2018-05-11T10:45:59.418Z,1031.14
2018-05-11T10:46:59.354Z,1031.12
2018-05-11T10:47:59.357Z,1031.12
2018-05-11T10:48:59.352Z,1031.13
2018-05-11T10:49:59.358Z,1031.09
2018-05-11T10:50:59.355Z,1031.08
2018-05-11T10:51:59.356Z,1031.1
2018-05-11T10:52:59.355Z,1031.08
2018-05-11T10:53:59.350Z,1031.08
2018-05-11T10:54:59.353Z,1031.1
2018-05-11T10:55:59.354Z,1031.08
2018-05-11T10:56:59.353Z,1031.06
2018-05-11T10:57:59.348Z,1031.02
2018-05-11T10:58:59.348Z,1031.05
2018-05-11T10:59:59.347Z,1031.12
2018-05-11T11:00:59.356Z,1031.19
2018-05-11T11:01:59.350Z,1031.28
2018-05-11T11:02:59.352Z,1031.41
2018-05-11T11:03:59.346Z,1031.48
2018-05-11T11:04:59.351Z,1031.55
2018-05-11T11:05:59.349Z,1031.57
2018-05-11T11:06:59.350Z,1031.58
2018-05-11T11:07:59.347Z,1031.62
2018-05-11T11:08:59.350Z,1031.69
2018-05-11T11:09:59.343Z,1031.74
2018-05-11T11:10:59.343Z,1031.88
2018-05-11T11:11:59.348Z,1031.93
2018-05-11T11:12:59.346Z,1031.92
2018-05-11T11:13:59.340Z,1031.93
2018-05-11T11:14:59.340Z,1031.94
2018-05-11T11:15:59.339Z,1031.96
2018-05-11T11:16:59.341Z,1031.98
2018-05-11T11:17:59.337Z,1032
2018-05-11T11:18:59.341Z,1032.01
2018-05-11T11:19:59.380Z,1032.06
2018-05-11T11:20:59.338Z,1032.04
2018-05-11T11:21:59.339Z,1032.14
2018-05-11T11:22:59.336Z,1032.14
2018-05-11T11:23:59.334Z,1032.17
2018-05-11T11:24:59.333Z,1032.13
2018-05-11T11:25:59.408Z,1032.11
2018-05-11T11:26:59.332Z,1032.1
2018-05-11T11:27:59.324Z,1032.07
2018-05-11T11:28:59.324Z,1032.06
2018-05-11T11:29:59.328Z,1032.07
2018-05-11T11:30:59.326Z,1032.03
2018-05-11T11:31:59.324Z,1032.03
2018-05-11T11:32:59.318Z,1032.04
2018-05-11T11:33:59.322Z,1032.03
2018-05-11T11:34:59.320Z,1032.01
2018-05-11T11:35:59.314Z,1031.99
2018-05-11T11:36:59.317Z,1031.94
2018-05-11T11:37:59.311Z,1031.87
2018-05-11T11:38:59.314Z,1031.86
2018-05-11T11:39:59.307Z,1031.84
2018-05-11T11:40:59.377Z,1031.83
2018-05-11T11:41:59.331Z,1031.84
2018-05-11T11:42:59.317Z,1031.85
2018-05-11T11:43:59.301Z,1031.83
2018-05-11T11:44:59.299Z,1031.82
2018-05-11T11:45:59.309Z,1031.77
2018-05-11T11:46:59.302Z,1031.77
2018-05-11T11:47:59.306Z,1031.82
2018-05-11T11:48:59.294Z,1031.78
2018-05-11T11:49:59.296Z,1031.79
2018-05-11T11:50:59.291Z,1031.76
2018-05-11T11:51:59.298Z,1031.72
2018-05-11T11:52:59.294Z,1031.67
2018-05-11T11:53:59.292Z,1031.67
2018-05-11T11:54:59.286Z,1031.69
2018-05-11T11:55:59.290Z,1031.68
2018-05-11T11:56:59.285Z,1031.74
2018-05-11T11:57:59.286Z,1031.7
2018-05-11T11:58:59.280Z,1031.73
2018-05-11T11:59:59.285Z,1031.68
2018-05-11T12:00:59.277Z,1031.7
2018-05-11T12:01:59.316Z,1031.76
2018-05-11T12:02:59.285Z,1031.8
2018-05-11T12:03:59.280Z,1031.8
2018-05-11T12:04:59.273Z,1031.83
2018-05-11T12:05:59.282Z,1031.86
2018-05-11T12:06:59.273Z,1031.86
2018-05-11T12:07:59.273Z,1031.86